KBFD/BFD METAR and TAF weather

Enter ICAO airport designator
Station Type Date Time Source
KBFD METAR 2019/08/19 11:53 UTC NOAA

KBFD 191153Z AUTO 29003KT 10SM CLR 18/18 A3006 RMK AO2 SLP164 60001 70050 T01830178 10200 20172 53009


Station Type Date Time Source
KBFD Decoded METAR 2019/08/19 11:53 UTC NOAA

Station name not available
Aug 19, 2019 - 07:53 AM EDT / 2019.08.19 1153 UTC
Wind: from the WNW (290 degrees) at 3 MPH (3 KT):0
Visibility: 10 mile(s):0
Sky conditions: clear
Temperature: 64.9 F (18.3 C)
Dew Point: 64.0 F (17.8 C)
Relative Humidity: 96%
Pressure (altimeter): 30.06 in. Hg (1017 hPa)
Pressure tendency: 0.03 inches (0.9 hPa) higher than three hours ago
ob: KBFD 191153Z AUTO 29003KT 10SM CLR 18/18 A3006 RMK AO2 SLP164 60001 70050 T01830178 10200 20172 53009
cycle: 12

Station Type Date Time Source
KBFD TAF 2019/08/19 12:51 UTC NOAA

TAF KBFD 191148Z 1912/2012 VRB04KT P6SM SCT150
FM191800 29007KT P6SM SCT050
FM200000 VRB03KT P6SM SCT100
FM200600 00000KT 1/2SM FG SCT001

Example: see airport list